sensor_id;sensor_type;location;lat;lon;timestamp;pressure;altitude;pressure_sealevel;temperature;humidity
53916;BME280;39827;49.652;18.770;2023-03-01T00:01:04;97509.63;;;-3.46;89.09
53916;BME280;39827;49.652;18.770;2023-03-01T00:03:30;97517.38;;;-3.74;90.54
53916;BME280;39827;49.652;18.770;2023-03-01T00:05:56;97517.88;;;-3.61;90.77
53916;BME280;39827;49.652;18.770;2023-03-01T00:08:22;97518.19;;;-3.36;90.12
53916;BME280;39827;49.652;18.770;2023-03-01T00:10:47;97528.38;;;-3.24;89.54
53916;BME280;39827;49.652;18.770;2023-03-01T00:13:13;97528.94;;;-3.31;89.07
53916;BME280;39827;49.652;18.770;2023-03-01T00:15:39;97529.19;;;-3.24;88.15
53916;BME280;39827;49.652;18.770;2023-03-01T00:18:06;97530.59;;;-3.87;90.01
53916;BME280;39827;49.652;18.770;2023-03-01T00:20:32;97530.91;;;-3.90;91.41
53916;BME280;39827;49.652;18.770;2023-03-01T00:22:57;97530.47;;;-3.96;91.53
53916;BME280;39827;49.652;18.770;2023-03-01T00:25:23;97516.63;;;-4.04;92.70
53916;BME280;39827;49.652;18.770;2023-03-01T00:27:48;97522.72;;;-3.96;91.98
53916;BME280;39827;49.652;18.770;2023-03-01T00:30:14;97520.00;;;-3.94;92.41
53916;BME280;39827;49.652;18.770;2023-03-01T00:32:40;97518.63;;;-3.98;91.91
53916;BME280;39827;49.652;18.770;2023-03-01T00:35:05;97519.03;;;-3.93;91.93
53916;BME280;39827;49.652;18.770;2023-03-01T00:37:31;97514.31;;;-3.60;92.06
53916;BME280;39827;49.652;18.770;2023-03-01T00:39:56;97507.75;;;-3.44;90.98
53916;BME280;39827;49.652;18.770;2023-03-01T00:42:22;97515.69;;;-3.56;90.28
53916;BME280;39827;49.652;18.770;2023-03-01T00:44:47;97520.94;;;-3.85;89.22
53916;BME280;39827;49.652;18.770;2023-03-01T00:47:13;97524.75;;;-3.80;89.75
53916;BME280;39827;49.652;18.770;2023-03-01T00:49:39;97519.47;;;-3.50;89.98
53916;BME280;39827;49.652;18.770;2023-03-01T00:52:05;97510.56;;;-3.37;89.57
53916;BME280;39827;49.652;18.770;2023-03-01T00:54:30;97518.66;;;-3.50;89.67
53916;BME280;39827;49.652;18.770;2023-03-01T00:56:56;97512.47;;;-3.77;90.56
53916;BME280;39827;49.652;18.770;2023-03-01T00:59:21;97493.81;;;-3.81;91.17
53916;BME280;39827;49.652;18.770;2023-03-01T01:01:48;97488.72;;;-3.63;90.42
53916;BME280;39827;49.652;18.770;2023-03-01T01:04:13;97494.13;;;-3.56;89.70
53916;BME280;39827;49.652;18.770;2023-03-01T01:06:42;97501.50;;;-3.51;89.58
53916;BME280;39827;49.652;18.770;2023-03-01T01:09:10;97507.78;;;-3.54;89.26
53916;BME280;39827;49.652;18.770;2023-03-01T01:11:46;97503.38;;;-3.54;89.79
53916;BME280;39827;49.652;18.770;2023-03-01T01:14:12;97508.78;;;-3.75;87.29
53916;BME280;39827;49.652;18.770;2023-03-01T01:16:38;97523.59;;;-3.67;87.67
53916;BME280;39827;49.652;18.770;2023-03-01T01:19:04;97518.53;;;-3.59;88.29
53916;BME280;39827;49.652;18.770;2023-03-01T01:21:30;97505.19;;;-3.54;88.51
53916;BME280;39827;49.652;18.770;2023-03-01T01:23:56;97508.28;;;-3.50;88.14
53916;BME280;39827;49.652;18.770;2023-03-01T01:26:25;97505.59;;;-3.59;88.70
53916;BME280;39827;49.652;18.770;2023-03-01T01:28:51;97503.13;;;-3.60;89.31
53916;BME280;39827;49.652;18.770;2023-03-01T01:31:16;97494.25;;;-3.86;89.75
53916;BME280;39827;49.652;18.770;2023-03-01T01:33:42;97491.16;;;-4.09;90.53
53916;BME280;39827;49.652;18.770;2023-03-01T01:36:08;97493.06;;;-4.01;91.25
53916;BME280;39827;49.652;18.770;2023-03-01T01:38:35;97493.56;;;-3.88;90.23
53916;BME280;39827;49.652;18.770;2023-03-01T01:41:00;97484.31;;;-3.90;91.51
53916;BME280;39827;49.652;18.770;2023-03-01T01:43:29;97499.66;;;-3.69;90.97
53916;BME280;39827;49.652;18.770;2023-03-01T01:46:01;97475.00;;;-3.73;89.75
53916;BME280;39827;49.652;18.770;2023-03-01T01:48:40;97492.75;;;-3.50;89.06
53916;BME280;39827;49.652;18.770;2023-03-01T01:51:17;97492.72;;;-3.41;89.01
53916;BME280;39827;49.652;18.770;2023-03-01T01:53:45;97488.06;;;-3.65;89.41
53916;BME280;39827;49.652;18.770;2023-03-01T01:56:15;97479.03;;;-3.61;89.41
53916;BME280;39827;49.652;18.770;2023-03-01T01:58:42;97491.84;;;-3.59;88.64
53916;BME280;39827;49.652;18.770;2023-03-01T02:01:09;97498.13;;;-3.62;88.11
53916;BME280;39827;49.652;18.770;2023-03-01T02:03:37;97481.00;;;-3.73;88.59
53916;BME280;39827;49.652;18.770;2023-03-01T02:08:38;97499.47;;;-4.06;91.78
53916;BME280;39827;49.652;18.770;2023-03-01T02:11:06;97485.94;;;-3.89;91.39
53916;BME280;39827;49.652;18.770;2023-03-01T02:13:34;97476.59;;;-4.00;92.77
53916;BME280;39827;49.652;18.770;2023-03-01T02:16:03;97483.78;;;-3.94;91.98
53916;BME280;39827;49.652;18.770;2023-03-01T02:18:29;97486.22;;;-3.93;91.03
53916;BME280;39827;49.652;18.770;2023-03-01T02:23:20;97481.50;;;-4.37;92.42
53916;BME280;39827;49.652;18.770;2023-03-01T02:26:00;97494.69;;;-4.20;92.44
53916;BME280;39827;49.652;18.770;2023-03-01T02:28:44;97487.34;;;-4.15;91.92
53916;BME280;39827;49.652;18.770;2023-03-01T02:31:15;97475.69;;;-4.29;92.04
53916;BME280;39827;49.652;18.770;2023-03-01T02:34:00;97483.81;;;-4.24;92.37
53916;BME280;39827;49.652;18.770;2023-03-01T02:36:32;97485.44;;;-4.13;92.10
53916;BME280;39827;49.652;18.770;2023-03-01T02:39:02;97480.94;;;-4.01;91.48
53916;BME280;39827;49.652;18.770;2023-03-01T02:41:30;97476.31;;;-4.07;91.10
53916;BME280;39827;49.652;18.770;2023-03-01T02:43:57;97476.22;;;-4.25;92.49
53916;BME280;39827;49.652;18.770;2023-03-01T02:46:24;97468.25;;;-4.04;92.24
53916;BME280;39827;49.652;18.770;2023-03-01T02:48:58;97460.75;;;-3.87;91.53
53916;BME280;39827;49.652;18.770;2023-03-01T02:54:38;97455.66;;;-4.27;92.14
53916;BME280;39827;49.652;18.770;2023-03-01T02:57:05;97440.25;;;-4.19;92.33
53916;BME280;39827;49.652;18.770;2023-03-01T02:59:33;97454.06;;;-3.90;90.58
53916;BME280;39827;49.652;18.770;2023-03-01T03:02:04;97451.13;;;-4.05;89.47
53916;BME280;39827;49.652;18.770;2023-03-01T03:04:30;97435.63;;;-4.15;90.35
53916;BME280;39827;49.652;18.770;2023-03-01T03:06:55;97435.78;;;-4.16;91.45
53916;BME280;39827;49.652;18.770;2023-03-01T03:09:21;97445.16;;;-4.15;91.14
53916;BME280;39827;49.652;18.770;2023-03-01T03:11:46;97443.69;;;-4.18;90.65
53916;BME280;39827;49.652;18.770;2023-03-01T03:14:14;97444.97;;;-4.04;89.80
53916;BME280;39827;49.652;18.770;2023-03-01T03:16:46;97426.13;;;-3.86;89.30
53916;BME280;39827;49.652;18.770;2023-03-01T03:19:12;97429.22;;;-4.11;90.78
53916;BME280;39827;49.652;18.770;2023-03-01T03:21:38;97423.53;;;-4.24;91.58
53916;BME280;39827;49.652;18.770;2023-03-01T03:24:04;97428.09;;;-4.08;91.07
53916;BME280;39827;49.652;18.770;2023-03-01T03:26:30;97429.56;;;-3.96;90.88
53916;BME280;39827;49.652;18.770;2023-03-01T03:28:56;97413.03;;;-4.13;90.01
53916;BME280;39827;49.652;18.770;2023-03-01T03:31:22;97413.56;;;-4.19;89.25
53916;BME280;39827;49.652;18.770;2023-03-01T03:33:47;97423.81;;;-4.27;90.39
53916;BME280;39827;49.652;18.770;2023-03-01T03:36:18;97422.38;;;-4.02;89.71
53916;BME280;39827;49.652;18.770;2023-03-01T03:38:44;97416.63;;;-3.96;90.27
53916;BME280;39827;49.652;18.770;2023-03-01T03:41:11;97411.06;;;-3.91;89.91
53916;BME280;39827;49.652;18.770;2023-03-01T03:43:39;97405.97;;;-4.21;88.76
53916;BME280;39827;49.652;18.770;2023-03-01T03:46:05;97425.97;;;-4.13;88.52
53916;BME280;39827;49.652;18.770;2023-03-01T03:48:33;97425.84;;;-4.31;88.59
53916;BME280;39827;49.652;18.770;2023-03-01T03:50:59;97436.19;;;-4.21;88.88
53916;BME280;39827;49.652;18.770;2023-03-01T03:53:26;97444.50;;;-4.27;90.57
53916;BME280;39827;49.652;18.770;2023-03-01T03:55:53;97445.88;;;-4.33;91.61
53916;BME280;39827;49.652;18.770;2023-03-01T03:58:21;97433.22;;;-4.26;92.70
53916;BME280;39827;49.652;18.770;2023-03-01T04:00:49;97436.59;;;-4.26;92.42
53916;BME280;39827;49.652;18.770;2023-03-01T04:03:16;97425.72;;;-4.20;91.02
53916;BME280;39827;49.652;18.770;2023-03-01T04:05:43;97432.25;;;-4.35;92.52
53916;BME280;39827;49.652;18.770;2023-03-01T04:08:09;97428.56;;;-4.23;91.33
53916;BME280;39827;49.652;18.770;2023-03-01T04:10:37;97433.59;;;-4.11;91.11
53916;BME280;39827;49.652;18.770;2023-03-01T04:13:04;97430.75;;;-4.18;91.51
53916;BME280;39827;49.652;18.770;2023-03-01T04:15:31;97418.56;;;-3.98;89.42
53916;BME280;39827;49.652;18.770;2023-03-01T04:17:57;97433.84;;;-4.14;90.54
53916;BME280;39827;49.652;18.770;2023-03-01T04:20:26;97421.06;;;-4.26;90.40
53916;BME280;39827;49.652;18.770;2023-03-01T04:23:06;97438.25;;;-4.35;92.10
53916;BME280;39827;49.652;18.770;2023-03-01T04:25:46;97433.84;;;-4.14;91.93
53916;BME280;39827;49.652;18.770;2023-03-01T04:28:15;97431.53;;;-4.18;91.67
53916;BME280;39827;49.652;18.770;2023-03-01T04:30:40;97429.66;;;-4.25;91.21
53916;BME280;39827;49.652;18.770;2023-03-01T04:33:07;97430.25;;;-4.41;91.19
53916;BME280;39827;49.652;18.770;2023-03-01T04:35:34;97433.25;;;-4.76;93.06
53916;BME280;39827;49.652;18.770;2023-03-01T04:37:59;97417.34;;;-4.81;95.45
53916;BME280;39827;49.652;18.770;2023-03-01T04:40:25;97421.41;;;-4.49;93.50
53916;BME280;39827;49.652;18.770;2023-03-01T04:42:50;97429.16;;;-4.49;93.39
53916;BME280;39827;49.652;18.770;2023-03-01T04:45:16;97418.53;;;-4.46;93.05
53916;BME280;39827;49.652;18.770;2023-03-01T04:47:43;97435.94;;;-4.38;92.66
53916;BME280;39827;49.652;18.770;2023-03-01T04:50:11;97434.00;;;-4.26;92.59
53916;BME280;39827;49.652;18.770;2023-03-01T04:52:37;97431.28;;;-4.14;92.92
53916;BME280;39827;49.652;18.770;2023-03-01T04:55:03;97422.44;;;-4.22;92.21
53916;BME280;39827;49.652;18.770;2023-03-01T04:57:29;97421.78;;;-4.43;91.59
53916;BME280;39827;49.652;18.770;2023-03-01T04:59:55;97423.03;;;-4.48;92.32
53916;BME280;39827;49.652;18.770;2023-03-01T05:02:20;97429.16;;;-4.39;90.71
53916;BME280;39827;49.652;18.770;2023-03-01T05:04:46;97422.84;;;-4.16;90.39
53916;BME280;39827;49.652;18.770;2023-03-01T05:07:11;97432.00;;;-4.52;90.75
53916;BME280;39827;49.652;18.770;2023-03-01T05:09:38;97422.63;;;-4.43;90.99
53916;BME280;39827;49.652;18.770;2023-03-01T05:12:04;97425.78;;;-4.59;90.82
53916;BME280;39827;49.652;18.770;2023-03-01T05:14:30;97436.38;;;-4.42;91.67
53916;BME280;39827;49.652;18.770;2023-03-01T05:16:55;97430.88;;;-4.20;91.76
53916;BME280;39827;49.652;18.770;2023-03-01T05:19:29;97431.59;;;-4.37;91.97
53916;BME280;39827;49.652;18.770;2023-03-01T05:21:56;97435.16;;;-4.38;92.15
53916;BME280;39827;49.652;18.770;2023-03-01T05:24:33;97435.25;;;-4.30;93.57
53916;BME280;39827;49.652;18.770;2023-03-01T05:27:00;97427.34;;;-4.19;91.66
53916;BME280;39827;49.652;18.770;2023-03-01T05:29:28;97427.19;;;-4.07;90.37
53916;BME280;39827;49.652;18.770;2023-03-01T05:32:01;97434.09;;;-3.98;90.08
53916;BME280;39827;49.652;18.770;2023-03-01T05:34:32;97432.25;;;-4.25;90.15
53916;BME280;39827;49.652;18.770;2023-03-01T05:36:58;97430.38;;;-4.63;92.87
53916;BME280;39827;49.652;18.770;2023-03-01T05:39:25;97431.59;;;-4.27;92.07
53916;BME280;39827;49.652;18.770;2023-03-01T05:41:56;97442.69;;;-4.07;92.25
53916;BME280;39827;49.652;18.770;2023-03-01T05:44:22;97444.47;;;-4.18;91.55
53916;BME280;39827;49.652;18.770;2023-03-01T05:46:48;97444.56;;;-3.99;92.16
53916;BME280;39827;49.652;18.770;2023-03-01T05:49:14;97433.47;;;-4.20;91.51
53916;BME280;39827;49.652;18.770;2023-03-01T05:51:41;97444.34;;;-4.26;91.29
53916;BME280;39827;49.652;18.770;2023-03-01T05:54:08;97441.72;;;-3.96;91.02
53916;BME280;39827;49.652;18.770;2023-03-01T05:56:34;97423.50;;;-4.14;89.89
53916;BME280;39827;49.652;18.770;2023-03-01T05:59:01;97434.34;;;-3.91;90.33
53916;BME280;39827;49.652;18.770;2023-03-01T06:01:26;97445.22;;;-3.87;89.87
53916;BME280;39827;49.652;18.770;2023-03-01T06:03:52;97439.44;;;-4.19;89.12
53916;BME280;39827;49.652;18.770;2023-03-01T06:06:17;97429.44;;;-3.94;88.80
53916;BME280;39827;49.652;18.770;2023-03-01T06:08:43;97434.31;;;-3.81;88.78
53916;BME280;39827;49.652;18.770;2023-03-01T06:11:09;97445.91;;;-3.57;88.42
53916;BME280;39827;49.652;18.770;2023-03-01T06:13:34;97432.44;;;-3.61;87.11
53916;BME280;39827;49.652;18.770;2023-03-01T06:16:00;97446.03;;;-3.87;87.79
53916;BME280;39827;49.652;18.770;2023-03-01T06:18:25;97441.97;;;-3.89;88.86
53916;BME280;39827;49.652;18.770;2023-03-01T06:20:55;97447.16;;;-3.61;87.84
53916;BME280;39827;49.652;18.770;2023-03-01T06:23:21;97438.28;;;-3.59;87.89
53916;BME280;39827;49.652;18.770;2023-03-01T06:25:46;97437.91;;;-3.64;88.39
53916;BME280;39827;49.652;18.770;2023-03-01T06:28:12;97430.38;;;-3.57;88.13
53916;BME280;39827;49.652;18.770;2023-03-01T06:30:37;97439.13;;;-3.58;87.94
53916;BME280;39827;49.652;18.770;2023-03-01T06:33:03;97445.84;;;-3.37;87.69
53916;BME280;39827;49.652;18.770;2023-03-01T06:35:29;97437.09;;;-3.36;87.82
53916;BME280;39827;49.652;18.770;2023-03-01T06:37:56;97450.94;;;-3.28;86.96
53916;BME280;39827;49.652;18.770;2023-03-01T06:40:23;97433.03;;;-3.21;86.22
53916;BME280;39827;49.652;18.770;2023-03-01T06:42:50;97443.53;;;-2.94;86.00
53916;BME280;39827;49.652;18.770;2023-03-01T06:45:17;97449.59;;;-2.85;86.10
53916;BME280;39827;49.652;18.770;2023-03-01T06:47:43;97442.25;;;-2.90;86.29
53916;BME280;39827;49.652;18.770;2023-03-01T06:50:09;97439.69;;;-2.72;85.90
53916;BME280;39827;49.652;18.770;2023-03-01T06:52:34;97441.66;;;-2.66;85.59
53916;BME280;39827;49.652;18.770;2023-03-01T06:55:00;97450.41;;;-2.67;85.25
53916;BME280;39827;49.652;18.770;2023-03-01T06:57:26;97447.00;;;-2.49;85.25
53916;BME280;39827;49.652;18.770;2023-03-01T06:59:51;97441.66;;;-2.47;84.58
53916;BME280;39827;49.652;18.770;2023-03-01T07:02:17;97446.44;;;-2.34;84.56
53916;BME280;39827;49.652;18.770;2023-03-01T07:04:42;97433.63;;;-2.36;85.47
53916;BME280;39827;49.652;18.770;2023-03-01T07:07:08;97432.56;;;-2.25;84.92
53916;BME280;39827;49.652;18.770;2023-03-01T07:09:34;97435.75;;;-2.13;84.86
53916;BME280;39827;49.652;18.770;2023-03-01T07:11:59;97436.50;;;-1.94;84.77
53916;BME280;39827;49.652;18.770;2023-03-01T07:14:25;97431.19;;;-0.65;82.23
53916;BME280;39827;49.652;18.770;2023-03-01T07:16:51;97415.44;;;1.22;75.98
53916;BME280;39827;49.652;18.770;2023-03-01T07:19:18;97430.25;;;2.37;74.85
53916;BME280;39827;49.652;18.770;2023-03-01T07:21:43;97434.88;;;3.45;63.67
53916;BME280;39827;49.652;18.770;2023-03-01T07:24:09;97440.28;;;3.94;61.36
53916;BME280;39827;49.652;18.770;2023-03-01T07:26:35;97433.84;;;5.57;58.11
53916;BME280;39827;49.652;18.770;2023-03-01T07:29:03;97440.88;;;6.37;51.71
53916;BME280;39827;49.652;18.770;2023-03-01T07:31:28;97446.41;;;6.75;49.90
53916;BME280;39827;49.652;18.770;2023-03-01T07:33:54;97446.66;;;6.67;48.96
53916;BME280;39827;49.652;18.770;2023-03-01T07:36:20;97439.47;;;6.94;48.53
53916;BME280;39827;49.652;18.770;2023-03-01T07:38:46;97441.31;;;7.26;47.23
53916;BME280;39827;49.652;18.770;2023-03-01T07:41:12;97442.75;;;7.22;47.35
53916;BME280;39827;49.652;18.770;2023-03-01T07:43:37;97444.25;;;7.43;46.62
53916;BME280;39827;49.652;18.770;2023-03-01T07:46:03;97448.13;;;8.17;44.59
53916;BME280;39827;49.652;18.770;2023-03-01T07:48:30;97446.66;;;8.21;44.84
53916;BME280;39827;49.652;18.770;2023-03-01T07:50:59;97436.63;;;7.86;45.31
53916;BME280;39827;49.652;18.770;2023-03-01T07:53:25;97445.44;;;8.42;43.79
53916;BME280;39827;49.652;18.770;2023-03-01T07:55:59;97449.00;;;8.11;44.95
53916;BME280;39827;49.652;18.770;2023-03-01T07:58:25;97426.56;;;8.01;45.06
53916;BME280;39827;49.652;18.770;2023-03-01T08:00:50;97425.09;;;8.99;43.08
53916;BME280;39827;49.652;18.770;2023-03-01T08:03:15;97408.97;;;9.62;42.33
53916;BME280;39827;49.652;18.770;2023-03-01T08:05:41;97423.38;;;10.02;41.12
53916;BME280;39827;49.652;18.770;2023-03-01T08:08:06;97427.16;;;10.06;41.99
53916;BME280;39827;49.652;18.770;2023-03-01T08:10:31;97419.66;;;10.51;40.68
53916;BME280;39827;49.652;18.770;2023-03-01T08:12:57;97420.59;;;9.97;39.43
53916;BME280;39827;49.652;18.770;2023-03-01T08:15:22;97420.19;;;9.45;41.58
53916;BME280;39827;49.652;18.770;2023-03-01T08:17:49;97417.03;;;9.91;40.37
53916;BME280;39827;49.652;18.770;2023-03-01T08:20:15;97409.09;;;11.09;39.01
53916;BME280;39827;49.652;18.770;2023-03-01T08:22:41;97407.03;;;11.11;38.03
53916;BME280;39827;49.652;18.770;2023-03-01T08:25:07;97409.94;;;11.27;37.29
53916;BME280;39827;49.652;18.770;2023-03-01T08:27:33;97411.00;;;11.94;35.84
53916;BME280;39827;49.652;18.770;2023-03-01T08:29:58;97400.78;;;12.20;35.57
53916;BME280;39827;49.652;18.770;2023-03-01T08:32:23;97409.16;;;11.60;36.24
53916;BME280;39827;49.652;18.770;2023-03-01T08:34:49;97393.28;;;12.00;35.99
53916;BME280;39827;49.652;18.770;2023-03-01T08:37:14;97389.78;;;12.56;34.82
53916;BME280;39827;49.652;18.770;2023-03-01T08:39:40;97399.88;;;12.54;35.30
53916;BME280;39827;49.652;18.770;2023-03-01T08:42:05;97397.50;;;12.13;35.82
53916;BME280;39827;49.652;18.770;2023-03-01T08:44:30;97390.97;;;12.93;35.44
53916;BME280;39827;49.652;18.770;2023-03-01T08:46:56;97378.88;;;12.53;33.96
53916;BME280;39827;49.652;18.770;2023-03-01T08:49:22;97376.38;;;13.23;34.72
53916;BME280;39827;49.652;18.770;2023-03-01T08:51:48;97375.63;;;13.28;34.03
53916;BME280;39827;49.652;18.770;2023-03-01T08:54:16;97369.25;;;13.57;33.81
53916;BME280;39827;49.652;18.770;2023-03-01T08:56:42;97378.94;;;13.73;33.59
53916;BME280;39827;49.652;18.770;2023-03-01T08:59:10;97377.28;;;13.67;34.01
53916;BME280;39827;49.652;18.770;2023-03-01T09:01:35;97374.63;;;13.34;34.35
53916;BME280;39827;49.652;18.770;2023-03-01T09:04:02;97372.50;;;13.64;33.77
53916;BME280;39827;49.652;18.770;2023-03-01T09:06:30;97370.91;;;14.70;32.38
53916;BME280;39827;49.652;18.770;2023-03-01T09:08:56;97354.84;;;13.96;31.88
53916;BME280;39827;49.652;18.770;2023-03-01T09:11:22;97367.19;;;14.76;31.82
53916;BME280;39827;49.652;18.770;2023-03-01T09:13:48;97373.09;;;14.78;31.48
53916;BME280;39827;49.652;18.770;2023-03-01T09:16:15;97369.66;;;15.04;30.55
53916;BME280;39827;49.652;18.770;2023-03-01T09:18:41;97371.28;;;15.15;29.38
53916;BME280;39827;49.652;18.770;2023-03-01T09:21:15;97375.34;;;14.49;31.90
53916;BME280;39827;49.652;18.770;2023-03-01T09:23:42;97369.59;;;14.78;31.15
53916;BME280;39827;49.652;18.770;2023-03-01T09:26:10;97379.56;;;15.45;29.34
53916;BME280;39827;49.652;18.770;2023-03-01T09:28:36;97378.47;;;16.08;28.82
53916;BME280;39827;49.652;18.770;2023-03-01T09:31:03;97375.53;;;15.89;29.69
53916;BME280;39827;49.652;18.770;2023-03-01T09:33:31;97366.94;;;16.13;28.89
53916;BME280;39827;49.652;18.770;2023-03-01T09:38:23;97367.00;;;15.40;27.48
53916;BME280;39827;49.652;18.770;2023-03-01T09:40:48;97366.97;;;15.92;27.42
53916;BME280;39827;49.652;18.770;2023-03-01T09:45:59;97381.91;;;16.09;27.73
53916;BME280;39827;49.652;18.770;2023-03-01T09:48:27;97373.13;;;15.72;27.79
53916;BME280;39827;49.652;18.770;2023-03-01T09:50:56;97369.88;;;16.11;28.51
53916;BME280;39827;49.652;18.770;2023-03-01T09:53:27;97377.72;;;17.14;25.60
53916;BME280;39827;49.652;18.770;2023-03-01T09:56:00;97375.81;;;15.98;27.28
53916;BME280;39827;49.652;18.770;2023-03-01T10:03:47;97366.22;;;16.68;27.73
53916;BME280;39827;49.652;18.770;2023-03-01T10:06:21;97367.09;;;16.53;26.96
53916;BME280;39827;49.652;18.770;2023-03-01T10:11:23;97354.34;;;16.29;28.19
53916;BME280;39827;49.652;18.770;2023-03-01T10:13:58;97345.38;;;17.10;27.27
53916;BME280;39827;49.652;18.770;2023-03-01T10:16:54;97349.59;;;16.71;28.01
53916;BME280;39827;49.652;18.770;2023-03-01T10:19:29;97353.72;;;17.73;27.71
53916;BME280;39827;49.652;18.770;2023-03-01T10:21:55;97355.41;;;18.18;26.76
53916;BME280;39827;49.652;18.770;2023-03-01T10:24:22;97365.22;;;17.98;25.59
53916;BME280;39827;49.652;18.770;2023-03-01T10:26:54;97354.16;;;17.51;26.81
53916;BME280;39827;49.652;18.770;2023-03-01T10:29:46;97352.50;;;18.14;26.83
53916;BME280;39827;49.652;18.770;2023-03-01T10:32:14;97344.88;;;18.46;26.51
53916;BME280;39827;49.652;18.770;2023-03-01T10:34:40;97343.56;;;18.43;26.47
53916;BME280;39827;49.652;18.770;2023-03-01T10:39:36;97339.25;;;18.23;26.81
53916;BME280;39827;49.652;18.770;2023-03-01T10:42:04;97342.25;;;17.92;27.40
53916;BME280;39827;49.652;18.770;2023-03-01T10:44:49;97350.34;;;18.60;27.55
53916;BME280;39827;49.652;18.770;2023-03-01T10:49:59;97325.47;;;17.56;27.90
53916;BME280;39827;49.652;18.770;2023-03-01T10:52:36;97333.41;;;17.37;29.60
53916;BME280;39827;49.652;18.770;2023-03-01T10:57:37;97326.34;;;17.17;28.96
53916;BME280;39827;49.652;18.770;2023-03-01T11:00:26;97327.34;;;17.26;29.27
53916;BME280;39827;49.652;18.770;2023-03-01T11:03:12;97318.09;;;17.13;28.88
53916;BME280;39827;49.652;18.770;2023-03-01T11:06:04;97324.63;;;16.86;29.11
53916;BME280;39827;49.652;18.770;2023-03-01T11:08:39;97313.28;;;16.65;29.71
53916;BME280;39827;49.652;18.770;2023-03-01T11:11:30;97317.78;;;17.15;29.03
53916;BME280;39827;49.652;18.770;2023-03-01T11:14:15;97317.47;;;16.31;28.67
53916;BME280;39827;49.652;18.770;2023-03-01T11:16:44;97313.88;;;15.70;29.54
53916;BME280;39827;49.652;18.770;2023-03-01T11:21:40;97312.19;;;11.87;36.00
53916;BME280;39827;49.652;18.770;2023-03-01T11:24:10;97279.19;;;12.45;35.72
53916;BME280;39827;49.652;18.770;2023-03-01T11:26:41;97289.19;;;13.63;35.25
53916;BME280;39827;49.652;18.770;2023-03-01T11:29:17;97289.81;;;14.55;33.94
53916;BME280;39827;49.652;18.770;2023-03-01T11:31:47;97280.56;;;15.46;32.55
53916;BME280;39827;49.652;18.770;2023-03-01T11:34:19;97287.22;;;15.33;32.05
53916;BME280;39827;49.652;18.770;2023-03-01T11:36:55;97282.69;;;15.44;32.53
53916;BME280;39827;49.652;18.770;2023-03-01T11:39:41;97276.22;;;15.76;31.63
53916;BME280;39827;49.652;18.770;2023-03-01T11:42:17;97281.50;;;16.58;30.41
53916;BME280;39827;49.652;18.770;2023-03-01T11:44:46;97282.53;;;16.12;31.25
53916;BME280;39827;49.652;18.770;2023-03-01T11:47:24;97282.34;;;15.82;30.43
53916;BME280;39827;49.652;18.770;2023-03-01T11:55:42;97270.31;;;15.95;31.95
53916;BME280;39827;49.652;18.770;2023-03-01T12:07:01;97249.31;;;16.34;30.70
53916;BME280;39827;49.652;18.770;2023-03-01T12:09:47;97240.28;;;16.64;30.71
53916;BME280;39827;49.652;18.770;2023-03-01T12:12:37;97245.25;;;16.41;29.84
53916;BME280;39827;49.652;18.770;2023-03-01T12:15:29;97251.28;;;16.63;31.06
53916;BME280;39827;49.652;18.770;2023-03-01T12:21:09;97241.03;;;16.70;30.49
53916;BME280;39827;49.652;18.770;2023-03-01T12:43:47;97219.47;;;15.29;31.11
53916;BME280;39827;49.652;18.770;2023-03-01T12:49:13;97219.38;;;15.71;31.54
53916;BME280;39827;49.652;18.770;2023-03-01T12:51:50;97213.69;;;15.88;32.01
53916;BME280;39827;49.652;18.770;2023-03-01T12:54:26;97210.63;;;16.21;32.29
53916;BME280;39827;49.652;18.770;2023-03-01T12:56:53;97208.69;;;15.71;32.28
53916;BME280;39827;49.652;18.770;2023-03-01T13:02:04;97203.41;;;15.50;32.43
53916;BME280;39827;49.652;18.770;2023-03-01T13:04:44;97203.25;;;15.15;33.05
53916;BME280;39827;49.652;18.770;2023-03-01T13:07:35;97204.06;;;14.84;33.04
53916;BME280;39827;49.652;18.770;2023-03-01T13:12:52;97200.56;;;15.15;33.12
53916;BME280;39827;49.652;18.770;2023-03-01T13:18:00;97191.53;;;15.06;33.50
53916;BME280;39827;49.652;18.770;2023-03-01T13:31:11;97185.72;;;13.72;36.27
53916;BME280;39827;49.652;18.770;2023-03-01T13:34:02;97182.50;;;13.65;36.30
53916;BME280;39827;49.652;18.770;2023-03-01T13:41:54;97166.69;;;12.94;37.51
53916;BME280;39827;49.652;18.770;2023-03-01T13:46:47;97158.78;;;12.67;36.76
53916;BME280;39827;49.652;18.770;2023-03-01T13:49:18;97165.00;;;12.17;37.27
53916;BME280;39827;49.652;18.770;2023-03-01T13:51:49;97166.66;;;12.01;37.67
53916;BME280;39827;49.652;18.770;2023-03-01T13:54:18;97161.50;;;11.67;37.92
53916;BME280;39827;49.652;18.770;2023-03-01T13:56:49;97160.09;;;11.37;38.46
53916;BME280;39827;49.652;18.770;2023-03-01T13:59:20;97159.59;;;11.40;38.60
53916;BME280;39827;49.652;18.770;2023-03-01T14:01:53;97161.56;;;11.10;40.65
53916;BME280;39827;49.652;18.770;2023-03-01T14:04:26;97175.34;;;10.90;40.89
53916;BME280;39827;49.652;18.770;2023-03-01T14:06:52;97162.06;;;10.38;41.19
53916;BME280;39827;49.652;18.770;2023-03-01T14:09:35;97165.56;;;10.27;41.01
53916;BME280;39827;49.652;18.770;2023-03-01T14:12:21;97169.88;;;10.16;41.22
53916;BME280;39827;49.652;18.770;2023-03-01T14:15:35;97163.50;;;10.29;41.17
53916;BME280;39827;49.652;18.770;2023-03-01T14:18:10;97153.41;;;9.68;41.61
53916;BME280;39827;49.652;18.770;2023-03-01T14:20:43;97165.75;;;9.79;41.75
53916;BME280;39827;49.652;18.770;2023-03-01T14:23:15;97156.31;;;9.54;41.94
53916;BME280;39827;49.652;18.770;2023-03-01T14:25:53;97168.16;;;9.51;42.48
53916;BME280;39827;49.652;18.770;2023-03-01T14:28:26;97167.97;;;9.17;42.39
53916;BME280;39827;49.652;18.770;2023-03-01T14:30:57;97161.66;;;8.70;43.46
53916;BME280;39827;49.652;18.770;2023-03-01T14:33:28;97164.88;;;8.30;44.22
53916;BME280;39827;49.652;18.770;2023-03-01T14:38:23;97164.81;;;7.56;46.12
53916;BME280;39827;49.652;18.770;2023-03-01T14:40:51;97167.59;;;7.43;45.67